Hoernerstown, Pennsylvania
Current Conditions -  °F | °C
As of 6:56 AM on Saturday 20 Dec 2014 (Local Time) from KMDT Reporting Station
Broken Clouds Broken Clouds  
Wind Chill: 24°   Ceiling: 3000
Heat Index: 29°   Visibility: 10mi
Dew Point: 19°   Wind: 5mph
Humidity: 67%   Direction: 320°NW
Pressure: 30.27"   Gusts: NA
Location:  40.2988°N, 76.709°W
Report Text: KMDT 201156Z 32004KT 10SM BKN030 M02/M07 A3027 RMK AO2 SLP255 T10171072 10000 21017 53009
Loading
Personal Weather Stations






























Interactive Weather Map New forecast layout! Learn more

10-Day Weather Forecast

Advertisements
Track Severe Weather on mobile